Time,TemperatureF,DewpointF,PressureIn,WindDirection,WindDirectionDegrees,WindSpeedMPH,WindSpeedGustMPH,Humidity,HourlyPrecipIn,Conditions,Clouds,dailyrainin,SoftwareType,DateUTC
2013-02-06 00:03:00,20.5,18.0,30.88,SSW,204,0.0,0.0,91,0.00,,,0.00,weatherlink.com 1.10,2013-02-06 05:03:00,
2013-02-06 00:18:00,20.5,18.0,30.88,SSW,211,0.0,1.0,91,0.00,,,0.00,weatherlink.com 1.10,2013-02-06 05:18:00,
2013-02-06 00:34:00,20.5,19.0,30.87,SW,224,0.0,1.0,92,0.00,,,0.00,weatherlink.com 1.10,2013-02-06 05:34:00,
2013-02-06 00:49:00,20.4,19.0,30.88,East,94,0.0,2.0,92,0.00,,,0.00,weatherlink.com 1.10,2013-02-06 05:49:00,
2013-02-06 01:04:00,20.4,19.0,30.88,SE,124,0.0,1.0,92,0.00,,,0.00,weatherlink.com 1.10,2013-02-06 06:04:00,
2013-02-06 01:19:00,20.4,19.0,30.87,South,177,0.0,1.0,92,0.00,,,0.00,weatherlink.com 1.10,2013-02-06 06:19:00,
2013-02-06 01:34:00,20.3,18.0,30.87,SSE,160,0.0,2.0,92,0.00,,,0.00,weatherlink.com 1.10,2013-02-06 06:34:00,
2013-02-06 01:49:00,20.4,19.0,30.87,SE,127,0.0,1.0,92,0.00,,,0.00,weatherlink.com 1.10,2013-02-06 06:49:00,
2013-02-06 02:04:00,20.5,19.0,30.87,SE,138,0.0,1.0,92,0.00,,,0.00,weatherlink.com 1.10,2013-02-06 07:04:00,
2013-02-06 02:19:00,20.5,19.0,30.87,SE,124,0.0,1.0,93,0.00,,,0.00,weatherlink.com 1.10,2013-02-06 07:19:00,
2013-02-06 02:34:00,20.5,19.0,30.87,ESE,113,0.0,1.0,93,0.00,,,0.00,weatherlink.com 1.10,2013-02-06 07:34:00,
2013-02-06 02:49:00,20.5,19.0,30.87,SE,128,0.0,1.0,93,0.00,,,0.00,weatherlink.com 1.10,2013-02-06 07:49:00,
2013-02-06 03:04:00,20.5,19.0,30.86,South,179,0.0,1.0,93,0.00,,,0.00,weatherlink.com 1.10,2013-02-06 08:04:00,
2013-02-06 03:19:00,20.3,19.0,30.86,SSE,163,0.0,0.0,93,0.00,,,0.00,weatherlink.com 1.10,2013-02-06 08:19:00,
2013-02-06 03:34:00,20.3,19.0,30.86,North,352,0.0,1.0,93,0.00,,,0.00,weatherlink.com 1.10,2013-02-06 08:34:00,
2013-02-06 03:49:00,20.2,19.0,30.86,South,190,0.0,0.0,93,0.00,,,0.00,weatherlink.com 1.10,2013-02-06 08:49:00,
2013-02-06 04:04:00,19.5,18.0,30.86,South,190,0.0,0.0,93,0.00,,,0.00,weatherlink.com 1.10,2013-02-06 09:04:00,
2013-02-06 04:19:00,19.4,18.0,30.86,South,190,0.0,0.0,93,0.00,,,0.00,weatherlink.com 1.10,2013-02-06 09:19:00,
2013-02-06 04:34:00,19.3,18.0,30.87,South,190,0.0,0.0,93,0.00,,,0.00,weatherlink.com 1.10,2013-02-06 09:34:00,
2013-02-06 04:49:00,19.2,18.0,30.87,South,189,0.0,0.0,93,0.00,,,0.00,weatherlink.com 1.10,2013-02-06 09:49:00,
2013-02-06 05:04:00,19.1,18.0,30.88,South,189,0.0,0.0,94,0.00,,,0.00,weatherlink.com 1.10,2013-02-06 10:04:00,
2013-02-06 05:19:00,19.3,18.0,30.88,SE,143,0.0,0.0,94,0.00,,,0.00,weatherlink.com 1.10,2013-02-06 10:19:00,
2013-02-06 05:34:00,19.4,18.0,30.88,SE,143,0.0,0.0,94,0.00,,,0.00,weatherlink.com 1.10,2013-02-06 10:34:00,
2013-02-06 05:50:00,19.8,18.0,30.89,SE,143,0.0,0.0,94,0.00,,,0.00,weatherlink.com 1.10,2013-02-06 10:50:00,
2013-02-06 06:04:00,19.9,19.0,30.89,SE,143,0.0,0.0,94,0.00,,,0.00,weatherlink.com 1.10,2013-02-06 11:04:00,
2013-02-06 06:19:00,19.7,18.0,30.90,SE,143,0.0,0.0,94,0.00,,,0.00,weatherlink.com 1.10,2013-02-06 11:19:00,
2013-02-06 06:34:00,20.1,19.0,30.90,WNW,291,0.0,2.0,95,0.00,,,0.00,weatherlink.com 1.10,2013-02-06 11:34:00,
2013-02-06 06:49:00,20.4,19.0,30.91,SW,234,0.0,6.0,94,0.00,,,0.00,weatherlink.com 1.10,2013-02-06 11:49:00,
2013-02-06 07:04:00,20.4,19.0,30.92,WNW,295,1.0,4.0,94,0.00,,,0.00,weatherlink.com 1.10,2013-02-06 12:04:00,
2013-02-06 07:20:00,20.6,19.0,30.91,WNW,302,1.0,2.0,94,0.00,,,0.00,weatherlink.com 1.10,2013-02-06 12:20:00,
2013-02-06 07:34:00,20.6,19.0,30.92,NNW,330,0.0,4.0,94,0.00,,,0.00,weatherlink.com 1.10,2013-02-06 12:34:00,
2013-02-06 07:49:00,20.7,19.0,30.92,West,280,0.0,3.0,94,0.00,,,0.00,weatherlink.com 1.10,2013-02-06 12:49:00,
2013-02-06 08:05:00,21.0,20.0,30.93,WNW,290,0.0,2.0,94,0.00,,,0.00,weatherlink.com 1.10,2013-02-06 13:05:00,
2013-02-06 08:20:00,21.7,20.0,30.93,NW,312,1.0,5.0,94,0.00,,,0.00,weatherlink.com 1.10,2013-02-06 13:20:00,
2013-02-06 08:35:00,22.8,21.0,30.94,North,349,0.0,5.0,93,0.00,,,0.00,weatherlink.com 1.10,2013-02-06 13:35:00,
2013-02-06 08:50:00,23.7,22.0,30.94,SSE,150,0.0,4.0,92,0.00,,,0.00,weatherlink.com 1.10,2013-02-06 13:50:00,
2013-02-06 09:05:00,24.2,22.0,30.93,WNW,285,1.0,6.0,90,0.00,,,0.00,weatherlink.com 1.10,2013-02-06 14:05:00,
2013-02-06 09:20:00,24.4,22.0,30.94,West,276,2.0,6.0,91,0.00,,,0.00,weatherlink.com 1.10,2013-02-06 14:20:00,
2013-02-06 09:35:00,25.3,23.0,30.94,WSW,258,1.0,7.0,89,0.00,,,0.00,weatherlink.com 1.10,2013-02-06 14:35:00,
2013-02-06 09:50:00,26.2,23.0,30.94,NW,326,4.0,7.0,87,0.00,,,0.00,weatherlink.com 1.10,2013-02-06 14:50:00,
2013-02-06 10:05:00,27.1,23.0,30.93,NW,314,3.0,7.0,85,0.00,,,0.00,weatherlink.com 1.10,2013-02-06 15:05:00,
2013-02-06 10:20:00,27.4,23.0,30.94,SW,215,0.0,8.0,83,0.00,,,0.00,weatherlink.com 1.10,2013-02-06 15:20:00,
2013-02-06 10:35:00,28.0,23.0,30.95,West,267,3.0,8.0,80,0.00,,,0.00,weatherlink.com 1.10,2013-02-06 15:35:00,
2013-02-06 10:50:00,28.4,22.0,30.95,NW,314,1.0,9.0,78,0.00,,,0.00,weatherlink.com 1.10,2013-02-06 15:50:00,
2013-02-06 11:05:00,28.6,23.0,30.95,WSW,255,2.0,9.0,78,0.00,,,0.00,weatherlink.com 1.10,2013-02-06 16:05:00,
2013-02-06 11:20:00,28.5,22.0,30.94,North,4,3.0,10.0,78,0.00,,,0.00,weatherlink.com 1.10,2013-02-06 16:20:00,
2013-02-06 11:35:00,29.1,22.0,30.94,WSW,249,4.0,11.0,75,0.00,,,0.00,weatherlink.com 1.10,2013-02-06 16:35:00,
2013-02-06 11:50:00,28.9,21.0,30.94,WNW,288,13.0,13.0,73,0.00,,,0.00,weatherlink.com 1.10,2013-02-06 16:50:00,
2013-02-06 12:05:00,28.8,22.0,30.94,West,274,6.0,12.0,74,0.00,,,0.00,weatherlink.com 1.10,2013-02-06 17:05:00,
2013-02-06 12:20:00,29.0,21.0,30.93,WNW,295,6.0,11.0,73,0.00,,,0.00,weatherlink.com 1.10,2013-02-06 17:20:00,
2013-02-06 12:35:00,29.3,21.0,30.93,NNW,338,3.0,14.0,72,0.00,,,0.00,weatherlink.com 1.10,2013-02-06 17:35:00,
2013-02-06 12:50:00,29.8,21.0,30.93,WNW,286,10.0,17.0,70,0.00,,,0.00,weatherlink.com 1.10,2013-02-06 17:50:00,
2013-02-06 13:05:00,29.5,21.0,30.94,SW,235,3.0,14.0,71,0.00,,,0.00,weatherlink.com 1.10,2013-02-06 18:05:00,
2013-02-06 13:21:00,29.1,22.0,30.95,WNW,287,12.0,16.0,74,0.00,,,0.00,weatherlink.com 1.10,2013-02-06 18:21:00,
2013-02-06 13:35:00,29.6,22.0,30.95,NW,321,6.0,12.0,73,0.00,,,0.00,weatherlink.com 1.10,2013-02-06 18:35:00,
2013-02-06 13:51:00,30.4,20.0,30.95,ESE,107,3.0,14.0,65,0.00,,,0.00,weatherlink.com 1.10,2013-02-06 18:51:00,
2013-02-06 14:05:00,31.8,20.0,30.95,NW,323,2.0,7.0,61,0.00,,,0.00,weatherlink.com 1.10,2013-02-06 19:05:00,
2013-02-06 14:20:00,32.0,19.0,30.95,West,269,4.0,14.0,58,0.00,,,0.00,weatherlink.com 1.10,2013-02-06 19:20:00,
2013-02-06 14:35:00,31.7,17.0,30.95,NW,325,8.0,18.0,55,0.00,,,0.00,weatherlink.com 1.10,2013-02-06 19:35:00,
2013-02-06 14:50:00,30.8,16.0,30.96,NNW,340,5.0,17.0,55,0.00,,,0.00,weatherlink.com 1.10,2013-02-06 19:50:00,
2013-02-06 15:05:00,31.3,17.0,30.96,NNW,334,10.0,15.0,56,0.00,,,0.00,weatherlink.com 1.10,2013-02-06 20:05:00,
2013-02-06 15:21:00,31.3,17.0,30.96,NNW,336,4.0,17.0,55,0.00,,,0.00,weatherlink.com 1.10,2013-02-06 20:21:00,
2013-02-06 15:36:00,31.2,17.0,30.97,NNW,332,5.0,11.0,56,0.00,,,0.00,weatherlink.com 1.10,2013-02-06 20:36:00,
2013-02-06 15:51:00,31.1,17.0,30.98,NNW,339,2.0,11.0,55,0.00,,,0.00,weatherlink.com 1.10,2013-02-06 20:51:00,
2013-02-06 16:06:00,30.8,16.0,30.99,NW,316,3.0,10.0,55,0.00,,,0.00,weatherlink.com 1.10,2013-02-06 21:06:00,
2013-02-06 16:21:00,30.2,15.0,30.99,NNW,338,7.0,14.0,53,0.00,,,0.00,weatherlink.com 1.10,2013-02-06 21:21:00,
2013-02-06 16:36:00,29.1,14.0,31.01,SSW,205,1.0,12.0,54,0.00,,,0.00,weatherlink.com 1.10,2013-02-06 21:36:00,
2013-02-06 16:51:00,28.3,14.0,31.01,NNE,25,3.0,13.0,55,0.00,,,0.00,weatherlink.com 1.10,2013-02-06 21:51:00,
2013-02-06 17:06:00,27.8,14.0,31.02,NNW,345,3.0,10.0,56,0.00,,,0.00,weatherlink.com 1.10,2013-02-06 22:06:00,
2013-02-06 17:21:00,27.2,14.0,31.03,WNW,290,1.0,8.0,57,0.00,,,0.00,weatherlink.com 1.10,2013-02-06 22:21:00,
2013-02-06 17:36:00,26.8,13.0,31.03,NW,309,4.0,12.0,56,0.00,,,0.00,weatherlink.com 1.10,2013-02-06 22:36:00,
2013-02-06 17:51:00,26.3,12.0,31.05,NNW,338,3.0,13.0,54,0.00,,,0.00,weatherlink.com 1.10,2013-02-06 22:51:00,
2013-02-06 18:06:00,26.0,11.0,31.06,NNW,332,1.0,13.0,53,0.00,,,0.00,weatherlink.com 1.10,2013-02-06 23:06:00,
2013-02-06 18:21:00,25.5,10.0,31.07,West,273,5.0,8.0,52,0.00,,,0.00,weatherlink.com 1.10,2013-02-06 23:21:00,
2013-02-06 18:36:00,25.0,9.0,31.08,NNW,347,3.0,10.0,51,0.00,,,0.00,weatherlink.com 1.10,2013-02-06 23:36:00,
2013-02-06 18:51:00,24.6,8.0,31.09,NNW,329,4.0,11.0,49,0.00,,,0.00,weatherlink.com 1.10,2013-02-06 23:51:00,
2013-02-06 19:06:00,24.3,8.0,31.10,NW,326,5.0,8.0,49,0.00,,,0.00,weatherlink.com 1.10,2013-02-07 00:06:00,
2013-02-06 19:21:00,23.9,7.0,31.11,WNW,300,2.0,9.0,49,0.00,,,0.00,weatherlink.com 1.10,2013-02-07 00:21:00,
2013-02-06 19:37:00,23.5,7.0,31.11,North,5,4.0,9.0,50,0.00,,,0.00,weatherlink.com 1.10,2013-02-07 00:37:00,
2013-02-06 19:51:00,23.1,6.0,31.12,NW,311,4.0,12.0,49,0.00,,,0.00,weatherlink.com 1.10,2013-02-07 00:51:00,
2013-02-06 20:07:00,22.9,6.0,31.12,NW,325,3.0,12.0,48,0.00,,,0.00,weatherlink.com 1.10,2013-02-07 01:07:00,
2013-02-06 20:21:00,22.4,6.0,31.13,NW,321,2.0,8.0,49,0.00,,,0.00,weatherlink.com 1.10,2013-02-07 01:21:00,
2013-02-06 20:36:00,21.8,5.0,31.14,WNW,301,3.0,6.0,49,0.00,,,0.00,weatherlink.com 1.10,2013-02-07 01:36:00,
2013-02-06 20:52:00,21.4,5.0,31.15,ESE,108,1.0,6.0,49,0.00,,,0.00,weatherlink.com 1.10,2013-02-07 01:52:00,
2013-02-06 21:06:00,20.9,5.0,31.15,SE,131,2.0,6.0,50,0.00,,,0.00,weatherlink.com 1.10,2013-02-07 02:06:00,
2013-02-06 21:22:00,20.4,4.0,31.16,NNW,329,0.0,3.0,50,0.00,,,0.00,weatherlink.com 1.10,2013-02-07 02:22:00,
2013-02-06 21:37:00,19.7,4.0,31.17,WSW,249,0.0,3.0,51,0.00,,,0.00,weatherlink.com 1.10,2013-02-07 02:37:00,
2013-02-06 21:52:00,18.8,4.0,31.18,WNW,297,0.0,3.0,53,0.00,,,0.00,weatherlink.com 1.10,2013-02-07 02:52:00,
2013-02-06 22:22:00,18.0,4.0,31.20,WSW,250,0.0,3.0,54,0.00,,,0.00,weatherlink.com 1.10,2013-02-07 03:22:00,
2013-02-06 22:37:00,17.8,4.0,31.20,NNW,338,0.0,2.0,55,0.00,,,0.00,weatherlink.com 1.10,2013-02-07 03:37:00,
2013-02-06 22:52:00,17.4,4.0,31.20,North,4,0.0,2.0,57,0.00,,,0.00,weatherlink.com 1.10,2013-02-07 03:52:00,
2013-02-06 23:07:00,16.6,6.0,31.21,NE,39,0.0,1.0,62,0.00,,,0.00,weatherlink.com 1.10,2013-02-07 04:07:00,
2013-02-06 23:22:00,15.8,4.0,31.22,ENE,78,0.0,1.0,59,0.00,,,0.00,weatherlink.com 1.10,2013-02-07 04:22:00,
2013-02-06 23:39:00,15.8,4.0,31.22,West,268,1.0,3.0,60,0.00,,,0.00,weatherlink.com 1.10,2013-02-07 04:39:00,
2013-02-06 23:52:00,15.8,4.0,31.23,West,276,0.0,1.0,60,0.00,,,0.00,weatherlink.com 1.10,2013-02-07 04:52:00,